sensor_id;sensor_type;location;lat;lon;timestamp;pressure;altitude;pressure_sealevel;temperature;humidity
57000;BME280;42891;50.006;21.964;2022-09-03T00:01:57;99276.19;;;16.30;67.72
57000;BME280;42891;50.006;21.964;2022-09-03T00:10:35;99275.81;;;16.08;68.54
57000;BME280;42891;50.006;21.964;2022-09-03T00:14:45;99272.16;;;16.01;68.74
57000;BME280;42891;50.006;21.964;2022-09-03T00:18:53;99263.31;;;15.92;69.02
57000;BME280;42891;50.006;21.964;2022-09-03T00:22:56;99262.47;;;15.92;69.21
57000;BME280;42891;50.006;21.964;2022-09-03T00:26:59;99257.66;;;15.95;69.46
57000;BME280;42891;50.006;21.964;2022-09-03T00:31:05;99266.13;;;15.99;69.12
57000;BME280;42891;50.006;21.964;2022-09-03T00:35:08;99262.31;;;15.93;69.53
57000;BME280;42891;50.006;21.964;2022-09-03T00:39:14;99256.91;;;15.77;70.13
57000;BME280;42891;50.006;21.964;2022-09-03T00:43:18;99259.47;;;15.87;69.82
57000;BME280;42891;50.006;21.964;2022-09-03T01:08:26;99273.09;;;15.41;71.58
57000;BME280;42891;50.006;21.964;2022-09-03T01:12:51;99268.00;;;15.56;71.18
57000;BME280;42891;50.006;21.964;2022-09-03T01:17:00;99270.19;;;15.52;71.54
57000;BME280;42891;50.006;21.964;2022-09-03T01:29:39;99278.59;;;15.39;72.16
57000;BME280;42891;50.006;21.964;2022-09-03T01:33:56;99273.63;;;15.44;71.84
57000;BME280;42891;50.006;21.964;2022-09-03T01:38:03;99268.50;;;15.51;71.23
57000;BME280;42891;50.006;21.964;2022-09-03T01:42:13;99269.66;;;15.48;71.32
57000;BME280;42891;50.006;21.964;2022-09-03T01:46:20;99267.66;;;15.50;71.37
57000;BME280;42891;50.006;21.964;2022-09-03T01:58:46;99264.31;;;15.40;71.84
57000;BME280;42891;50.006;21.964;2022-09-03T02:02:49;99264.63;;;15.37;72.03
57000;BME280;42891;50.006;21.964;2022-09-03T02:06:50;99253.13;;;15.37;72.21
57000;BME280;42891;50.006;21.964;2022-09-03T02:10:52;99255.78;;;15.37;72.03
57000;BME280;42891;50.006;21.964;2022-09-03T02:14:54;99261.09;;;15.28;72.65
57000;BME280;42891;50.006;21.964;2022-09-03T02:19:02;99259.41;;;15.19;72.81
57000;BME280;42891;50.006;21.964;2022-09-03T02:23:04;99265.88;;;15.16;72.82
57000;BME280;42891;50.006;21.964;2022-09-03T02:27:04;99261.22;;;15.18;72.97
57000;BME280;42891;50.006;21.964;2022-09-03T02:31:05;99251.88;;;15.06;73.51
57000;BME280;42891;50.006;21.964;2022-09-03T02:35:05;99259.41;;;15.19;73.08
57000;BME280;42891;50.006;21.964;2022-09-03T02:39:05;99260.41;;;14.92;73.99
57000;BME280;42891;50.006;21.964;2022-09-03T02:43:07;99255.63;;;14.95;74.16
57000;BME280;42891;50.006;21.964;2022-09-03T02:47:10;99260.66;;;15.07;73.85
57000;BME280;42891;50.006;21.964;2022-09-03T02:51:10;99270.69;;;14.87;74.61
57000;BME280;42891;50.006;21.964;2022-09-03T02:55:11;99268.91;;;14.95;74.26
57000;BME280;42891;50.006;21.964;2022-09-03T02:59:11;99272.25;;;14.97;74.42
57000;BME280;42891;50.006;21.964;2022-09-03T03:03:11;99256.97;;;14.99;74.33
57000;BME280;42891;50.006;21.964;2022-09-03T03:07:11;99268.44;;;15.00;74.19
57000;BME280;42891;50.006;21.964;2022-09-03T03:11:12;99266.16;;;15.05;73.96
57000;BME280;42891;50.006;21.964;2022-09-03T03:15:17;99264.84;;;15.09;73.65
57000;BME280;42891;50.006;21.964;2022-09-03T03:19:18;99260.50;;;15.08;73.80
57000;BME280;42891;50.006;21.964;2022-09-03T03:23:18;99261.75;;;14.96;74.51
57000;BME280;42891;50.006;21.964;2022-09-03T03:27:19;99268.13;;;14.77;74.94
57000;BME280;42891;50.006;21.964;2022-09-03T03:31:20;99272.03;;;14.91;74.43
57000;BME280;42891;50.006;21.964;2022-09-03T03:35:21;99269.84;;;14.86;74.67
57000;BME280;42891;50.006;21.964;2022-09-03T03:39:21;99269.75;;;14.96;74.81
57000;BME280;42891;50.006;21.964;2022-09-03T03:43:21;99261.75;;;14.96;74.64
57000;BME280;42891;50.006;21.964;2022-09-03T03:47:21;99263.88;;;14.84;75.06
57000;BME280;42891;50.006;21.964;2022-09-03T03:51:21;99270.06;;;14.93;74.72
57000;BME280;42891;50.006;21.964;2022-09-03T03:55:22;99264.38;;;14.88;74.86
57000;BME280;42891;50.006;21.964;2022-09-03T03:59:22;99259.59;;;14.91;75.00
57000;BME280;42891;50.006;21.964;2022-09-03T04:03:23;99254.28;;;14.91;74.99
57000;BME280;42891;50.006;21.964;2022-09-03T04:07:23;99263.94;;;14.92;75.04
57000;BME280;42891;50.006;21.964;2022-09-03T04:11:23;99252.28;;;14.93;74.91
57000;BME280;42891;50.006;21.964;2022-09-03T04:15:24;99261.28;;;14.92;75.12
57000;BME280;42891;50.006;21.964;2022-09-03T04:19:24;99271.03;;;14.92;75.05
57000;BME280;42891;50.006;21.964;2022-09-03T04:23:24;99262.91;;;14.93;75.41
57000;BME280;42891;50.006;21.964;2022-09-03T04:27:24;99260.53;;;14.82;75.78
57000;BME280;42891;50.006;21.964;2022-09-03T04:31:25;99263.72;;;14.86;76.04
57000;BME280;42891;50.006;21.964;2022-09-03T04:35:25;99269.34;;;14.82;76.04
57000;BME280;42891;50.006;21.964;2022-09-03T04:39:28;99266.72;;;14.91;76.00
57000;BME280;42891;50.006;21.964;2022-09-03T04:43:28;99272.34;;;14.88;75.93
57000;BME280;42891;50.006;21.964;2022-09-03T04:47:28;99267.63;;;14.99;75.33
57000;BME280;42891;50.006;21.964;2022-09-03T04:51:29;99267.13;;;15.04;75.11
57000;BME280;42891;50.006;21.964;2022-09-03T04:55:36;99265.97;;;15.07;75.14
57000;BME280;42891;50.006;21.964;2022-09-03T04:59:37;99263.31;;;15.07;75.16
57000;BME280;42891;50.006;21.964;2022-09-03T05:03:37;99260.66;;;15.07;75.05
57000;BME280;42891;50.006;21.964;2022-09-03T05:07:38;99269.94;;;15.03;75.04
57000;BME280;42891;50.006;21.964;2022-09-03T05:11:38;99270.16;;;15.09;74.88
57000;BME280;42891;50.006;21.964;2022-09-03T05:15:38;99275.97;;;15.13;74.62
57000;BME280;42891;50.006;21.964;2022-09-03T05:19:39;99271.84;;;15.18;74.46
57000;BME280;42891;50.006;21.964;2022-09-03T05:23:46;99274.22;;;15.22;74.55
57000;BME280;42891;50.006;21.964;2022-09-03T05:27:47;99272.38;;;15.22;74.54
57000;BME280;42891;50.006;21.964;2022-09-03T05:31:47;99275.84;;;15.23;74.68
57000;BME280;42891;50.006;21.964;2022-09-03T05:35:47;99272.16;;;15.15;74.59
57000;BME280;42891;50.006;21.964;2022-09-03T05:39:47;99273.53;;;15.20;74.61
57000;BME280;42891;50.006;21.964;2022-09-03T05:43:48;99277.16;;;15.18;74.73
57000;BME280;42891;50.006;21.964;2022-09-03T05:47:55;99281.34;;;15.21;74.70
57000;BME280;42891;50.006;21.964;2022-09-03T05:51:58;99281.22;;;15.31;73.83
57000;BME280;42891;50.006;21.964;2022-09-03T05:55:59;99277.56;;;15.32;74.11
57000;BME280;42891;50.006;21.964;2022-09-03T06:00:00;99277.28;;;15.43;73.93
57000;BME280;42891;50.006;21.964;2022-09-03T06:04:02;99285.59;;;15.40;74.17
57000;BME280;42891;50.006;21.964;2022-09-03T06:08:02;99287.97;;;15.51;73.48
57000;BME280;42891;50.006;21.964;2022-09-03T06:12:02;99288.13;;;15.50;73.36
57000;BME280;42891;50.006;21.964;2022-09-03T06:16:03;99294.47;;;15.57;73.55
57000;BME280;42891;50.006;21.964;2022-09-03T06:20:04;99293.81;;;15.55;73.31
57000;BME280;42891;50.006;21.964;2022-09-03T06:24:05;99300.28;;;15.52;73.40
57000;BME280;42891;50.006;21.964;2022-09-03T06:28:05;99301.09;;;15.53;73.39
57000;BME280;42891;50.006;21.964;2022-09-03T06:32:07;99300.13;;;15.54;73.39
57000;BME280;42891;50.006;21.964;2022-09-03T06:36:15;99305.28;;;15.56;73.22
57000;BME280;42891;50.006;21.964;2022-09-03T06:40:16;99309.81;;;15.63;73.92
57000;BME280;42891;50.006;21.964;2022-09-03T06:44:21;99305.66;;;15.69;73.61
57000;BME280;42891;50.006;21.964;2022-09-03T06:48:23;99310.84;;;15.79;73.78
57000;BME280;42891;50.006;21.964;2022-09-03T06:52:23;99308.06;;;15.80;73.15
57000;BME280;42891;50.006;21.964;2022-09-03T06:56:24;99314.72;;;15.84;72.29
57000;BME280;42891;50.006;21.964;2022-09-03T07:00:27;99314.06;;;15.91;72.03
57000;BME280;42891;50.006;21.964;2022-09-03T07:04:27;99314.56;;;15.94;72.63
57000;BME280;42891;50.006;21.964;2022-09-03T07:08:27;99329.06;;;16.00;73.67
57000;BME280;42891;50.006;21.964;2022-09-03T07:12:29;99337.38;;;15.97;72.42
57000;BME280;42891;50.006;21.964;2022-09-03T07:16:35;99343.41;;;16.07;72.22
57000;BME280;42891;50.006;21.964;2022-09-03T07:20:35;99336.75;;;16.11;70.85
57000;BME280;42891;50.006;21.964;2022-09-03T07:24:36;99333.44;;;16.17;70.42
57000;BME280;42891;50.006;21.964;2022-09-03T07:28:38;99328.44;;;16.23;69.88
57000;BME280;42891;50.006;21.964;2022-09-03T07:32:38;99326.81;;;16.30;69.43
57000;BME280;42891;50.006;21.964;2022-09-03T07:36:42;99333.78;;;16.39;70.46
57000;BME280;42891;50.006;21.964;2022-09-03T07:40:42;99322.97;;;16.41;69.87
57000;BME280;42891;50.006;21.964;2022-09-03T07:44:43;99326.66;;;16.40;69.55
57000;BME280;42891;50.006;21.964;2022-09-03T07:48:45;99340.97;;;16.47;69.74
57000;BME280;42891;50.006;21.964;2022-09-03T07:52:46;99336.97;;;16.51;69.53
57000;BME280;42891;50.006;21.964;2022-09-03T07:56:46;99343.97;;;16.44;69.58
57000;BME280;42891;50.006;21.964;2022-09-03T08:00:47;99348.63;;;16.50;70.84
57000;BME280;42891;50.006;21.964;2022-09-03T08:04:47;99356.81;;;16.57;70.23
57000;BME280;42891;50.006;21.964;2022-09-03T08:08:48;99357.63;;;16.57;70.16
57000;BME280;42891;50.006;21.964;2022-09-03T08:12:48;99367.81;;;16.53;70.08
57000;BME280;42891;50.006;21.964;2022-09-03T08:16:49;99360.97;;;16.59;70.47
57000;BME280;42891;50.006;21.964;2022-09-03T08:20:49;99356.47;;;16.60;70.53
57000;BME280;42891;50.006;21.964;2022-09-03T08:24:50;99355.81;;;16.66;70.75
57000;BME280;42891;50.006;21.964;2022-09-03T08:28:53;99336.47;;;16.56;70.63
57000;BME280;42891;50.006;21.964;2022-09-03T08:32:54;99361.16;;;16.74;71.17
57000;BME280;42891;50.006;21.964;2022-09-03T08:36:54;99342.47;;;16.66;70.45
57000;BME280;42891;50.006;21.964;2022-09-03T08:41:05;99362.44;;;16.86;70.97
57000;BME280;42891;50.006;21.964;2022-09-03T08:45:07;99358.34;;;16.92;69.39
57000;BME280;42891;50.006;21.964;2022-09-03T08:49:12;99342.66;;;16.89;69.41
57000;BME280;42891;50.006;21.964;2022-09-03T08:54:03;99345.13;;;16.91;68.55
57000;BME280;42891;50.006;21.964;2022-09-03T08:57:49;99343.16;;;17.01;68.70
57000;BME280;42891;50.006;21.964;2022-09-03T09:01:52;99348.13;;;17.04;68.12
57000;BME280;42891;50.006;21.964;2022-09-03T09:06:15;99344.97;;;17.00;68.39
57000;BME280;42891;50.006;21.964;2022-09-03T09:10:43;99351.47;;;17.06;67.79
57000;BME280;42891;50.006;21.964;2022-09-03T09:19:06;99362.97;;;17.15;68.43
57000;BME280;42891;50.006;21.964;2022-09-03T09:23:19;99366.63;;;17.14;68.06
57000;BME280;42891;50.006;21.964;2022-09-03T09:27:23;99354.63;;;17.18;68.24
57000;BME280;42891;50.006;21.964;2022-09-03T09:31:24;99360.63;;;17.28;68.12
57000;BME280;42891;50.006;21.964;2022-09-03T09:35:25;99365.91;;;17.36;67.65
57000;BME280;42891;50.006;21.964;2022-09-03T09:39:26;99369.06;;;17.40;67.36
57000;BME280;42891;50.006;21.964;2022-09-03T09:43:26;99374.56;;;17.47;68.11
57000;BME280;42891;50.006;21.964;2022-09-03T09:47:35;99368.53;;;17.53;67.75
57000;BME280;42891;50.006;21.964;2022-09-03T09:51:42;99369.69;;;17.59;66.11
57000;BME280;42891;50.006;21.964;2022-09-03T09:55:53;99375.34;;;17.64;65.51
57000;BME280;42891;50.006;21.964;2022-09-03T10:00:21;99374.81;;;17.68;64.93
57000;BME280;42891;50.006;21.964;2022-09-03T10:04:22;99385.00;;;17.73;64.76
57000;BME280;42891;50.006;21.964;2022-09-03T10:08:23;99377.81;;;17.73;65.09
57000;BME280;42891;50.006;21.964;2022-09-03T10:12:28;99381.78;;;17.78;64.40
57000;BME280;42891;50.006;21.964;2022-09-03T10:16:35;99381.78;;;17.78;64.05
57000;BME280;42891;50.006;21.964;2022-09-03T10:20:45;99370.75;;;17.81;63.37
57000;BME280;42891;50.006;21.964;2022-09-03T10:24:58;99376.59;;;17.84;62.87
57000;BME280;42891;50.006;21.964;2022-09-03T10:29:03;99382.28;;;17.81;63.36
57000;BME280;42891;50.006;21.964;2022-09-03T10:33:12;99374.47;;;17.80;63.44
57000;BME280;42891;50.006;21.964;2022-09-03T10:37:25;99382.66;;;17.78;63.53
57000;BME280;42891;50.006;21.964;2022-09-03T10:45:54;99372.44;;;17.82;63.47
57000;BME280;42891;50.006;21.964;2022-09-03T10:50:13;99373.09;;;17.84;63.63
57000;BME280;42891;50.006;21.964;2022-09-03T10:54:54;99359.97;;;17.74;63.08
57000;BME280;42891;50.006;21.964;2022-09-03T11:07:42;99374.41;;;17.96;62.66
57000;BME280;42891;50.006;21.964;2022-09-03T11:11:54;99376.56;;;18.01;62.48
57000;BME280;42891;50.006;21.964;2022-09-03T11:16:03;99371.75;;;17.96;62.48
57000;BME280;42891;50.006;21.964;2022-09-03T11:20:20;99382.00;;;18.16;62.57
57000;BME280;42891;50.006;21.964;2022-09-03T11:24:23;99381.00;;;18.09;62.77
57000;BME280;42891;50.006;21.964;2022-09-03T11:28:43;99377.97;;;18.20;62.69
57000;BME280;42891;50.006;21.964;2022-09-03T11:32:58;99370.72;;;18.29;62.35
57000;BME280;42891;50.006;21.964;2022-09-03T11:37:27;99370.34;;;18.32;61.55
57000;BME280;42891;50.006;21.964;2022-09-03T11:41:33;99371.84;;;18.34;60.59
57000;BME280;42891;50.006;21.964;2022-09-03T11:45:38;99354.00;;;18.27;60.10
57000;BME280;42891;50.006;21.964;2022-09-03T11:49:46;99368.94;;;18.44;60.45
57000;BME280;42891;50.006;21.964;2022-09-03T11:58:17;99358.06;;;18.46;60.23
57000;BME280;42891;50.006;21.964;2022-09-03T12:02:30;99370.13;;;18.65;61.12
57000;BME280;42891;50.006;21.964;2022-09-03T12:07:07;99373.75;;;18.72;59.71
57000;BME280;42891;50.006;21.964;2022-09-03T12:19:55;99335.28;;;18.73;58.55
57000;BME280;42891;50.006;21.964;2022-09-03T12:23:57;99358.13;;;18.84;58.20
57000;BME280;42891;50.006;21.964;2022-09-03T12:28:11;99346.34;;;18.93;57.96
57000;BME280;42891;50.006;21.964;2022-09-03T12:32:15;99343.28;;;18.96;57.91
57000;BME280;42891;50.006;21.964;2022-09-03T12:36:17;99337.94;;;18.96;57.74
57000;BME280;42891;50.006;21.964;2022-09-03T12:40:25;99328.19;;;19.03;56.76
57000;BME280;42891;50.006;21.964;2022-09-03T12:44:28;99326.38;;;19.34;57.21
57000;BME280;42891;50.006;21.964;2022-09-03T12:48:29;99325.81;;;19.38;56.43
57000;BME280;42891;50.006;21.964;2022-09-03T12:56:54;99321.28;;;19.24;54.68
57000;BME280;42891;50.006;21.964;2022-09-03T13:01:11;99313.06;;;19.11;56.27
57000;BME280;42891;50.006;21.964;2022-09-03T13:05:16;99318.50;;;19.17;55.64
57000;BME280;42891;50.006;21.964;2022-09-03T13:09:22;99316.28;;;19.06;55.82
57000;BME280;42891;50.006;21.964;2022-09-03T13:13:31;99313.63;;;19.06;56.33
57000;BME280;42891;50.006;21.964;2022-09-03T13:17:39;99319.78;;;19.06;55.27
57000;BME280;42891;50.006;21.964;2022-09-03T13:26:45;99311.78;;;18.83;56.00
57000;BME280;42891;50.006;21.964;2022-09-03T13:43:44;99311.19;;;18.96;55.21
57000;BME280;42891;50.006;21.964;2022-09-03T13:47:56;99321.44;;;18.93;55.02
57000;BME280;42891;50.006;21.964;2022-09-03T13:52:39;99326.31;;;18.89;55.34
57000;BME280;42891;50.006;21.964;2022-09-03T14:05:00;99334.09;;;18.76;57.15
57000;BME280;42891;50.006;21.964;2022-09-03T14:14:27;99319.69;;;18.62;58.02
57000;BME280;42891;50.006;21.964;2022-09-03T14:21:57;99346.44;;;18.77;57.25
57000;BME280;42891;50.006;21.964;2022-09-03T14:26:02;99333.13;;;18.53;57.47
57000;BME280;42891;50.006;21.964;2022-09-03T14:30:33;99331.78;;;19.11;56.44
57000;BME280;42891;50.006;21.964;2022-09-03T14:35:10;99325.25;;;19.28;55.77
57000;BME280;42891;50.006;21.964;2022-09-03T14:39:32;99333.94;;;19.30;56.09
57000;BME280;42891;50.006;21.964;2022-09-03T14:43:40;99325.06;;;19.15;56.60
57000;BME280;42891;50.006;21.964;2022-09-03T14:52:56;99340.91;;;19.01;56.54
57000;BME280;42891;50.006;21.964;2022-09-03T15:01:12;99322.19;;;18.63;57.07
57000;BME280;42891;50.006;21.964;2022-09-03T15:23:10;99347.69;;;18.51;59.09
57000;BME280;42891;50.006;21.964;2022-09-03T15:27:44;99364.41;;;18.45;59.95
57000;BME280;42891;50.006;21.964;2022-09-03T15:36:21;99324.19;;;18.15;60.18
57000;BME280;42891;50.006;21.964;2022-09-03T15:44:48;99348.16;;;18.31;60.28
57000;BME280;42891;50.006;21.964;2022-09-03T15:49:04;99362.16;;;18.33;60.73
57000;BME280;42891;50.006;21.964;2022-09-03T15:53:24;99363.06;;;18.26;60.73
57000;BME280;42891;50.006;21.964;2022-09-03T16:02:22;99362.63;;;18.14;61.98
57000;BME280;42891;50.006;21.964;2022-09-03T16:15:36;99352.09;;;18.12;61.63
57000;BME280;42891;50.006;21.964;2022-09-03T16:20:13;99356.28;;;18.15;61.51
57000;BME280;42891;50.006;21.964;2022-09-03T16:24:23;99343.19;;;17.97;61.77
57000;BME280;42891;50.006;21.964;2022-09-03T16:28:30;99356.38;;;17.90;62.30
57000;BME280;42891;50.006;21.964;2022-09-03T16:36:55;99357.22;;;17.82;63.27
57000;BME280;42891;50.006;21.964;2022-09-03T16:41:31;99354.56;;;17.82;63.77
57000;BME280;42891;50.006;21.964;2022-09-03T16:45:51;99360.44;;;17.78;63.87
57000;BME280;42891;50.006;21.964;2022-09-03T16:50:13;99352.78;;;17.75;64.29
57000;BME280;42891;50.006;21.964;2022-09-03T17:12:14;99356.41;;;17.42;64.71
57000;BME280;42891;50.006;21.964;2022-09-03T17:21:17;99378.44;;;17.36;65.24
57000;BME280;42891;50.006;21.964;2022-09-03T17:24:53;99392.28;;;17.40;65.29
57000;BME280;42891;50.006;21.964;2022-09-03T17:29:15;99402.44;;;17.36;65.11
57000;BME280;42891;50.006;21.964;2022-09-03T17:38:13;99405.81;;;17.30;65.80
57000;BME280;42891;50.006;21.964;2022-09-03T17:51:03;99411.16;;;17.21;66.45
57000;BME280;42891;50.006;21.964;2022-09-03T17:55:31;99419.63;;;17.25;66.97
57000;BME280;42891;50.006;21.964;2022-09-03T17:59:38;99421.50;;;17.25;67.08
57000;BME280;42891;50.006;21.964;2022-09-03T18:12:18;99430.66;;;17.06;66.59
57000;BME280;42891;50.006;21.964;2022-09-03T18:16:32;99428.50;;;17.01;66.58
57000;BME280;42891;50.006;21.964;2022-09-03T18:20:42;99430.19;;;17.02;66.31
57000;BME280;42891;50.006;21.964;2022-09-03T18:25:04;99420.84;;;16.90;66.86
57000;BME280;42891;50.006;21.964;2022-09-03T18:29:30;99387.13;;;16.72;66.64
57000;BME280;42891;50.006;21.964;2022-09-03T18:33:51;99429.03;;;16.96;66.97
57000;BME280;42891;50.006;21.964;2022-09-03T18:38:10;99428.16;;;16.96;66.99
57000;BME280;42891;50.006;21.964;2022-09-03T18:42:50;99427.69;;;16.92;66.43
57000;BME280;42891;50.006;21.964;2022-09-03T18:52:42;99432.63;;;16.79;66.71
57000;BME280;42891;50.006;21.964;2022-09-03T18:57:10;99431.66;;;16.80;66.70
57000;BME280;42891;50.006;21.964;2022-09-03T19:01:35;99439.13;;;16.76;67.03
57000;BME280;42891;50.006;21.964;2022-09-03T19:10:57;99422.28;;;16.59;67.81
57000;BME280;42891;50.006;21.964;2022-09-03T19:15:23;99415.44;;;16.48;68.02
57000;BME280;42891;50.006;21.964;2022-09-03T19:24:05;99451.25;;;16.54;68.94
57000;BME280;42891;50.006;21.964;2022-09-03T19:28:31;99450.59;;;16.52;69.25
57000;BME280;42891;50.006;21.964;2022-09-03T19:38:14;99452.41;;;16.51;69.18
57000;BME280;42891;50.006;21.964;2022-09-03T19:56:27;99453.84;;;16.29;69.28
57000;BME280;42891;50.006;21.964;2022-09-03T20:00:46;99449.50;;;16.20;69.45
57000;BME280;42891;50.006;21.964;2022-09-03T20:05:20;99453.00;;;16.21;69.48
57000;BME280;42891;50.006;21.964;2022-09-03T20:09:42;99470.13;;;16.18;69.26
57000;BME280;42891;50.006;21.964;2022-09-03T20:14:02;99459.28;;;16.11;69.52
57000;BME280;42891;50.006;21.964;2022-09-03T20:22:50;99461.03;;;15.94;69.68
57000;BME280;42891;50.006;21.964;2022-09-03T20:31:42;99470.84;;;15.85;70.63
57000;BME280;42891;50.006;21.964;2022-09-03T20:40:13;99470.75;;;15.77;70.57
57000;BME280;42891;50.006;21.964;2022-09-03T20:44:44;99471.38;;;15.71;70.59
57000;BME280;42891;50.006;21.964;2022-09-03T21:06:28;99464.66;;;15.32;71.19
57000;BME280;42891;50.006;21.964;2022-09-03T21:10:52;99473.25;;;15.26;71.58
57000;BME280;42891;50.006;21.964;2022-09-03T21:15:02;99449.00;;;15.11;71.09
57000;BME280;42891;50.006;21.964;2022-09-03T21:19:21;99465.66;;;15.13;71.05
57000;BME280;42891;50.006;21.964;2022-09-03T21:23:39;99452.91;;;14.99;70.89
57000;BME280;42891;50.006;21.964;2022-09-03T21:27:58;99446.00;;;14.88;70.75
57000;BME280;42891;50.006;21.964;2022-09-03T21:32:37;99457.31;;;14.90;70.98
57000;BME280;42891;50.006;21.964;2022-09-03T21:36:41;99460.22;;;14.79;71.41
57000;BME280;42891;50.006;21.964;2022-09-03T21:40:48;99450.88;;;14.75;72.02
57000;BME280;42891;50.006;21.964;2022-09-03T21:44:59;99458.13;;;14.73;71.74
57000;BME280;42891;50.006;21.964;2022-09-03T21:49:07;99450.19;;;14.45;72.99
57000;BME280;42891;50.006;21.964;2022-09-03T21:53:27;99466.94;;;14.55;73.23
57000;BME280;42891;50.006;21.964;2022-09-03T21:57:38;99464.84;;;14.49;73.18
57000;BME280;42891;50.006;21.964;2022-09-03T22:02:06;99469.66;;;14.45;72.60
57000;BME280;42891;50.006;21.964;2022-09-03T22:06:16;99463.25;;;14.38;72.04
57000;BME280;42891;50.006;21.964;2022-09-03T22:10:29;99457.00;;;14.29;73.07
57000;BME280;42891;50.006;21.964;2022-09-03T22:14:40;99455.63;;;14.25;72.12
57000;BME280;42891;50.006;21.964;2022-09-03T22:18:42;99459.56;;;14.21;72.33
57000;BME280;42891;50.006;21.964;2022-09-03T22:22:51;99459.19;;;14.16;72.92
57000;BME280;42891;50.006;21.964;2022-09-03T22:53:01;99469.16;;;13.67;75.73
57000;BME280;42891;50.006;21.964;2022-09-03T22:57:07;99476.16;;;13.68;75.44
57000;BME280;42891;50.006;21.964;2022-09-03T23:09:38;99475.06;;;13.51;73.84
57000;BME280;42891;50.006;21.964;2022-09-03T23:13:42;99486.78;;;13.58;73.18
57000;BME280;42891;50.006;21.964;2022-09-03T23:17:53;99492.25;;;13.56;73.25
57000;BME280;42891;50.006;21.964;2022-09-03T23:22:09;99487.94;;;13.36;73.98
57000;BME280;42891;50.006;21.964;2022-09-03T23:30:29;99496.28;;;13.31;72.13
57000;BME280;42891;50.006;21.964;2022-09-03T23:34:30;99473.53;;;13.09;72.71
57000;BME280;42891;50.006;21.964;2022-09-03T23:38:39;99479.25;;;13.14;72.54
57000;BME280;42891;50.006;21.964;2022-09-03T23:43:08;99494.78;;;13.19;71.96
57000;BME280;42891;50.006;21.964;2022-09-03T23:56:02;99491.13;;;13.00;72.24
